Time;durP1;ratioP1;P1;durP2;ratioP2;P2;SDS_P1;SDS_P2;PMS_P1;PMS_P2;Temp;Humidity;BMP_temperature;BMP_pressure;BME280_temperature;BME280_humidity;BME280_pressure;Samples;Min_cycle;Max_cycle;Signal;HPM_P1;HPM_P2
2022/11/04 00:01:46;;;;;;;8.60;4.30;;;;;;;9.64;47.70;100876.56;105774;1304;21961;-65
2022/11/04 00:04:13;;;;;;;7.70;3.90;;;;;;;9.60;47.74;100883.73;104386;1306;1002583;-65
2022/11/04 00:06:39;;;;;;;9.80;4.70;;;;;;;9.56;47.73;100884.79;105801;1306;21959;-64
2022/11/04 00:09:06;;;;;;;10.40;5.10;;;;;;;9.52;47.80;100883.73;105733;1304;21959;-65
2022/11/04 00:14:17;;;;;;;8.50;4.70;;;;;;;9.44;47.95;100882.34;106689;1305;21958;-66
2022/11/04 00:28:41;;;;;;;14.40;4.80;;;;;;;9.36;48.09;100884.77;105721;1306;22932;-65
2022/11/04 00:30:32;;;;;;;14.10;4.80;;;;;;;9.30;48.15;100883.36;105714;1305;21979;-66
2022/11/04 00:35:52;;;;;;;7.90;4.30;;;;;;;9.18;48.07;100877.23;105707;1306;21977;-66
2022/11/04 00:38:18;;;;;;;9.70;4.40;;;;;;;9.12;48.09;100876.86;105791;1301;21957;-64
2022/11/04 00:40:45;;;;;;;9.60;4.80;;;;;;;9.06;48.15;100875.45;105884;1306;21963;-63
2022/11/04 00:43:11;;;;;;;9.60;4.60;;;;;;;9.01;48.11;100877.20;105724;1305;22004;-65
2022/11/04 00:45:36;;;;;;;11.40;4.20;;;;;;;8.97;48.21;100879.11;105703;1306;21963;-64
2022/11/04 00:48:02;;;;;;;9.70;3.70;;;;;;;8.93;48.10;100874.20;105729;1304;21971;-65
2022/11/04 00:50:28;;;;;;;7.90;3.60;;;;;;;8.91;48.24;100873.68;105743;1306;21964;-64
2022/11/04 00:53:01;;;;;;;8.10;4.50;;;;;;;8.90;48.26;100866.48;105768;1306;21979;-65
2022/11/04 00:55:27;;;;;;;9.90;4.30;;;;;;;8.87;48.25;100864.55;105744;1305;22002;-64
2022/11/04 00:57:53;;;;;;;9.60;5.00;;;;;;;8.83;48.31;100859.31;105754;1305;21968;-66
2022/11/04 01:00:18;;;;;;;10.40;4.70;;;;;;;8.80;48.45;100859.30;105784;1304;21960;-64
2022/11/04 01:02:45;;;;;;;9.80;4.80;;;;;;;8.80;48.37;100858.43;105755;1305;22037;-64
2022/11/04 01:05:12;;;;;;;10.70;5.00;;;;;;;8.79;48.35;100860.35;105748;1300;21954;-65
2022/11/04 01:07:38;;;;;;;10.50;4.40;;;;;;;8.75;48.29;100857.89;105790;1306;21970;-64
2022/11/04 01:10:05;;;;;;;9.00;4.40;;;;;;;8.69;48.37;100858.20;105755;1306;21960;-64
2022/11/04 01:12:31;;;;;;;10.70;4.40;;;;;;;8.61;48.72;100860.81;105793;1306;21969;-63
2022/11/04 01:14:58;;;;;;;13.20;5.40;;;;;;;8.49;48.83;100860.04;105755;1306;22004;-64
2022/11/04 01:17:26;;;;;;;9.30;4.80;;;;;;;8.43;48.92;100856.34;105775;1306;22100;-65
2022/11/04 01:19:52;;;;;;;11.70;5.40;;;;;;;8.41;48.96;100850.55;105717;1301;21960;-64
2022/11/04 01:22:18;;;;;;;9.80;5.20;;;;;;;8.40;48.86;100845.48;105985;1306;22047;-65
2022/11/04 01:24:44;;;;;;;12.50;5.80;;;;;;;8.39;48.97;100844.42;105737;1306;21966;-63
2022/11/04 01:27:09;;;;;;;11.40;5.70;;;;;;;8.40;49.03;100847.75;105671;1306;21963;-64
2022/11/04 01:29:35;;;;;;;11.70;5.70;;;;;;;8.47;49.03;100847.98;105660;1306;21962;-64
2022/11/04 01:32:01;;;;;;;13.90;6.20;;;;;;;8.48;49.12;100849.20;105666;1306;22005;-64
2022/11/04 01:34:26;;;;;;;12.00;5.80;;;;;;;8.43;49.29;100848.29;105650;1306;21959;-64
2022/11/04 01:36:53;;;;;;;14.30;5.90;;;;;;;8.50;49.19;100848.86;105620;1306;21970;-64
2022/11/04 01:39:19;;;;;;;10.60;6.40;;;;;;;8.58;49.10;100848.21;107440;1306;22108;-66
2022/11/04 01:41:46;;;;;;;10.50;5.70;;;;;;;8.56;49.15;100846.29;105779;1305;21964;-65
2022/11/04 01:44:40;;;;;;;11.60;6.00;;;;;;;8.47;49.40;100848.49;105723;1306;21965;-66
2022/11/04 01:47:36;;;;;;;11.60;5.30;;;;;;;8.45;49.50;100849.52;105697;1306;21975;-64
2022/11/04 01:50:23;;;;;;;10.80;5.30;;;;;;;8.52;49.60;100845.91;105761;1306;22071;-64
2022/11/04 01:52:55;;;;;;;15.40;6.50;;;;;;;8.50;49.94;100846.25;105800;1306;23815;-64
2022/11/04 01:55:45;;;;;;;11.20;5.50;;;;;;;8.49;49.94;100846.08;105803;1306;22007;-64
2022/11/04 01:58:13;;;;;;;12.20;5.40;;;;;;;8.52;49.90;100837.86;105725;1306;21977;-63
2022/11/04 02:00:41;;;;;;;8.50;4.80;;;;;;;8.54;49.73;100834.20;105753;1306;21967;-64
2022/11/04 02:03:18;;;;;;;14.00;5.50;;;;;;;8.56;49.77;100832.46;105644;1306;21961;-65
2022/11/04 02:05:45;;;;;;;11.60;5.30;;;;;;;8.60;49.55;100834.22;105772;1306;21951;-63
2022/11/04 02:08:11;;;;;;;10.70;5.80;;;;;;;8.59;49.34;100838.25;105778;1306;22010;-64
2022/11/04 02:10:36;;;;;;;14.10;5.70;;;;;;;8.57;49.22;100835.97;105677;1306;21986;-65
2022/11/04 02:13:03;;;;;;;10.10;4.90;;;;;;;8.55;49.15;100828.96;105591;1300;21964;-64
2022/11/04 02:16:17;;;;;;;10.30;4.60;;;;;;;8.51;49.21;100834.36;105751;1306;21962;-64
2022/11/04 02:19:18;;;;;;;10.90;4.90;;;;;;;8.46;49.36;100835.02;104214;1306;1003056;-64
2022/11/04 02:22:07;;;;;;;11.90;5.60;;;;;;;8.46;49.23;100836.23;105786;1306;21965;-65
2022/11/04 02:25:10;;;;;;;13.70;5.50;;;;;;;8.40;49.21;100835.16;105729;1306;21943;-64
2022/11/04 02:27:36;;;;;;;13.20;5.00;;;;;;;8.33;49.20;100834.79;105716;1306;22001;-65
2022/11/04 02:30:13;;;;;;;11.40;4.90;;;;;;;8.31;49.56;100835.13;105689;1306;21959;-63
2022/11/04 02:32:55;;;;;;;10.20;4.70;;;;;;;8.30;49.47;100836.88;105670;1306;22017;-64
2022/11/04 02:36:08;;;;;;;10.60;5.30;;;;;;;8.31;49.55;100838.28;105696;1306;21961;-64
2022/11/04 02:38:56;;;;;;;15.90;5.90;;;;;;;8.37;49.66;100842.85;105685;1306;22009;-63
2022/11/04 02:41:55;;;;;;;13.10;5.60;;;;;;;8.40;49.52;100844.95;105594;1306;21975;-65
2022/11/04 02:44:31;;;;;;;11.80;5.60;;;;;;;8.38;49.45;100850.90;105688;1305;22011;-65
2022/11/04 02:47:03;;;;;;;9.40;5.00;;;;;;;8.34;49.34;100851.75;105711;1306;21964;-63
2022/11/04 02:49:40;;;;;;;12.20;6.10;;;;;;;8.30;49.26;100850.67;105665;1303;21968;-66
2022/11/04 02:52:06;;;;;;;14.00;5.50;;;;;;;8.26;49.25;100851.02;105709;1306;21963;-65
2022/11/04 02:54:43;;;;;;;12.00;5.70;;;;;;;8.24;49.25;100846.80;105738;1306;21968;-66
2022/11/04 02:57:12;;;;;;;10.50;5.10;;;;;;;8.25;49.35;100845.95;105751;1293;21956;-66
2022/11/04 02:59:59;;;;;;;13.30;5.70;;;;;;;8.26;49.44;100847.17;105656;1306;22009;-65
2022/11/04 03:02:31;;;;;;;12.10;5.20;;;;;;;8.27;49.37;100849.45;105621;1306;23782;-64
2022/11/04 03:04:57;;;;;;;13.30;5.70;;;;;;;8.22;49.28;100848.55;105803;1306;22088;-65
2022/11/04 03:07:26;;;;;;;12.40;5.60;;;;;;;8.12;49.09;100850.06;105581;1306;21960;-65
2022/11/04 03:09:54;;;;;;;12.50;5.40;;;;;;;8.03;49.24;100849.85;105814;1306;21960;-66
2022/11/04 03:12:22;;;;;;;11.90;5.30;;;;;;;7.99;49.52;100847.39;105779;1305;21966;-66
2022/11/04 03:14:54;;;;;;;9.40;5.20;;;;;;;7.98;49.44;100845.80;105736;1302;22383;-65
2022/11/04 03:17:30;;;;;;;11.90;5.20;;;;;;;7.96;49.47;100845.25;105763;1305;21968;-66
2022/11/04 03:19:57;;;;;;;10.80;5.10;;;;;;;7.96;49.61;100844.73;104941;1304;1003161;-64
2022/11/04 03:22:29;;;;;;;10.30;5.20;;;;;;;7.96;49.52;100841.06;105755;1306;22006;-63
2022/11/04 03:24:55;;;;;;;16.10;6.70;;;;;;;7.99;49.55;100842.30;105699;1298;21967;-64
2022/11/04 03:27:29;;;;;;;11.20;5.30;;;;;;;8.00;49.48;100842.14;105682;1306;21962;-64
2022/11/04 03:30:03;;;;;;;9.30;5.70;;;;;;;7.98;49.40;100842.65;105769;1306;21960;-64
2022/11/04 03:33:20;;;;;;;10.80;5.70;;;;;;;7.95;49.55;100841.42;105959;1306;21956;-63
2022/11/04 03:35:45;;;;;;;9.80;5.40;;;;;;;7.95;49.59;100838.98;105654;1305;22007;-66
2022/11/04 03:38:11;;;;;;;10.30;5.40;;;;;;;7.90;49.79;100838.77;105741;1306;21975;-64
2022/11/04 03:40:38;;;;;;;8.70;5.00;;;;;;;7.89;49.76;100839.64;105736;1306;21961;-66
2022/11/04 03:43:12;;;;;;;12.10;5.30;;;;;;;7.91;49.70;100836.16;105714;1306;21976;-67
2022/11/04 03:45:39;;;;;;;11.30;5.40;;;;;;;7.93;49.79;100831.80;106435;1305;21952;-63
2022/11/04 03:48:05;;;;;;;13.90;6.20;;;;;;;7.95;49.75;100829.70;105662;1306;21975;-67
2022/11/04 03:50:42;;;;;;;13.30;5.80;;;;;;;7.95;49.67;100831.64;105745;1306;21959;-67
2022/11/04 03:53:08;;;;;;;12.40;6.00;;;;;;;7.95;49.77;100829.88;105789;1306;21937;-67
2022/11/04 03:55:59;;;;;;;10.00;5.10;;;;;;;7.94;49.59;100832.16;105788;1306;21940;-63
2022/11/04 03:58:41;;;;;;;12.00;5.70;;;;;;;7.90;49.56;100833.52;105669;1308;21971;-63
2022/11/04 04:01:21;;;;;;;13.50;6.10;;;;;;;7.83;49.43;100833.30;105717;1307;21958;-64
2022/11/04 04:04:13;;;;;;;12.40;4.90;;;;;;;7.82;49.76;100828.93;105711;1306;21954;-66
2022/11/04 04:06:39;;;;;;;11.90;5.20;;;;;;;7.84;49.98;100825.61;105682;1303;21973;-67
2022/11/04 04:09:20;;;;;;;11.50;5.70;;;;;;;7.84;49.81;100824.40;105672;1306;22051;-65
2022/11/04 04:11:54;;;;;;;21.10;7.30;;;;;;;7.85;49.84;100821.95;105779;1306;21968;-67
2022/11/04 04:14:39;;;;;;;11.90;6.10;;;;;;;7.83;49.72;100822.84;105748;1306;22085;-64
2022/11/04 04:17:11;;;;;;;12.40;5.60;;;;;;;7.82;49.87;100822.65;105651;1306;22023;-66
2022/11/04 04:19:38;;;;;;;8.70;5.10;;;;;;;7.82;49.89;100820.90;105785;1306;22005;-64
2022/11/04 04:22:08;;;;;;;11.90;5.50;;;;;;;7.80;49.89;100819.14;105639;1306;21964;-66
2022/11/04 04:27:32;;;;;;;21.70;5.40;;;;;;;7.75;49.80;100808.95;105791;1301;21970;-63
2022/11/04 04:30:00;;;;;;;14.40;5.10;;;;;;;7.68;49.73;100813.98;105758;1306;21962;-64
2022/11/04 04:32:27;;;;;;;13.20;5.40;;;;;;;7.63;49.89;100816.22;105703;1307;21968;-63
2022/11/04 04:35:40;;;;;;;14.30;6.20;;;;;;;7.59;49.61;100814.11;105793;1302;22004;-66
2022/11/04 04:37:41;;;;;;;15.10;6.00;;;;;;;7.57;49.66;100816.70;106158;1301;21968;-67
2022/11/04 04:45:41;;;;;;;21.10;6.90;;;;;;;7.65;50.08;100820.08;105746;1293;21970;-64
2022/11/04 04:48:08;;;;;;;20.90;5.90;;;;;;;7.70;50.16;100817.69;105822;1305;21966;-63
2022/11/04 04:50:43;;;;;;;11.60;5.40;;;;;;;7.76;49.91;100818.05;105824;1305;21978;-63
2022/11/04 04:53:09;;;;;;;12.50;5.20;;;;;;;7.79;50.01;100824.54;105761;1306;22664;-63
2022/11/04 04:55:34;;;;;;;12.00;5.90;;;;;;;7.80;50.06;100830.66;105558;1306;21979;-63
2022/11/04 04:58:00;;;;;;;12.00;5.60;;;;;;;7.78;49.76;100836.05;105660;1306;22027;-63
2022/11/04 05:00:26;;;;;;;15.50;6.60;;;;;;;7.77;50.08;100839.02;106449;1306;21787;-66
2022/11/04 05:02:52;;;;;;;13.30;5.90;;;;;;;7.82;50.31;100840.81;107835;1298;21773;-66
2022/11/04 05:05:18;;;;;;;16.00;5.80;;;;;;;7.89;50.17;100837.37;107857;1306;22069;-66
2022/11/04 05:07:45;;;;;;;13.40;6.00;;;;;;;7.95;50.23;100837.05;107750;1306;21775;-63
2022/11/04 05:10:12;;;;;;;15.80;5.40;;;;;;;8.02;50.46;100835.85;107047;1306;21960;-63
2022/11/04 05:15:23;;;;;;;11.30;5.40;;;;;;;8.20;50.32;100840.48;105793;1306;22430;-63
2022/11/04 05:17:55;;;;;;;14.80;6.30;;;;;;;8.27;50.33;100840.19;103600;1306;1003207;-65
2022/11/04 05:20:23;;;;;;;11.80;6.10;;;;;;;8.31;50.18;100838.98;105672;1306;21968;-65
2022/11/04 05:22:50;;;;;;;14.20;6.20;;;;;;;8.37;50.21;100840.23;105845;1305;21999;-65
2022/11/04 05:25:16;;;;;;;12.70;6.20;;;;;;;8.42;50.26;100842.16;105806;1306;21962;-63
2022/11/04 05:27:42;;;;;;;13.50;6.60;;;;;;;8.44;50.19;100849.52;105887;1307;21983;-65
2022/11/04 05:30:08;;;;;;;10.50;5.90;;;;;;;8.46;50.35;100852.33;105909;1307;21958;-63
2022/11/04 05:32:34;;;;;;;12.00;6.80;;;;;;;8.53;50.22;100856.59;105895;1305;21960;-65
2022/11/04 05:35:00;;;;;;;14.60;7.00;;;;;;;8.56;50.20;100860.80;105891;1298;21959;-66
2022/11/04 05:37:26;;;;;;;16.20;7.30;;;;;;;8.58;50.22;100864.83;105755;1301;21974;-62
2022/11/04 05:39:52;;;;;;;14.70;7.00;;;;;;;8.61;50.19;100868.16;105776;1306;21970;-65
2022/11/04 05:42:17;;;;;;;14.00;6.60;;;;;;;8.63;50.26;100872.53;105743;1306;21963;-63
2022/11/04 05:44:43;;;;;;;14.60;7.10;;;;;;;8.63;50.43;100870.61;105734;1301;21978;-63
2022/11/04 05:47:09;;;;;;;13.50;6.70;;;;;;;8.68;50.51;100866.95;105749;1303;21962;-65
2022/11/04 05:49:35;;;;;;;14.70;6.50;;;;;;;8.81;50.49;100871.20;105760;1306;21968;-62
2022/11/04 05:52:01;;;;;;;20.50;5.90;;;;;;;8.91;50.73;100875.08;105871;1306;21963;-63
2022/11/04 05:54:26;;;;;;;12.50;6.20;;;;;;;9.02;50.69;100872.30;105663;1306;21982;-63
2022/11/04 05:56:52;;;;;;;12.50;6.30;;;;;;;9.16;50.64;100877.05;105709;1304;21966;-63
2022/11/04 05:59:18;;;;;;;15.30;6.80;;;;;;;9.27;50.53;100881.09;105616;1306;23731;-63
2022/11/04 06:01:44;;;;;;;12.80;6.80;;;;;;;9.39;50.78;100878.31;105770;1306;23120;-66
2022/11/04 06:04:16;;;;;;;15.70;8.10;;;;;;;9.50;50.71;100882.85;105651;1306;24159;-64
2022/11/04 06:06:42;;;;;;;16.20;7.60;;;;;;;9.58;50.80;100884.96;105860;1306;21959;-66
2022/11/04 06:09:08;;;;;;;14.80;7.90;;;;;;;9.67;50.85;100886.36;105729;1306;21968;-64
2022/11/04 06:11:35;;;;;;;22.30;7.80;;;;;;;9.80;50.86;100888.27;105747;1306;22035;-66
2022/11/04 06:14:02;;;;;;;24.40;7.20;;;;;;;9.92;50.88;100892.82;105775;1301;21964;-67
2022/11/04 06:16:28;;;;;;;20.00;6.70;;;;;;;10.00;50.88;100896.84;105707;1306;21960;-64
2022/11/04 06:18:54;;;;;;;23.30;7.30;;;;;;;10.13;50.87;100897.86;105669;1298;21967;-66
2022/11/04 06:21:25;;;;;;;16.00;7.00;;;;;;;10.29;50.69;100894.67;105683;1298;21964;-67
2022/11/04 06:23:52;;;;;;;12.60;7.20;;;;;;;10.43;50.82;100896.23;105757;1306;22422;-66
2022/11/04 06:26:18;;;;;;;15.10;7.90;;;;;;;10.57;50.74;100898.13;105832;1306;21973;-67
2022/11/04 06:28:46;;;;;;;16.90;7.10;;;;;;;10.66;50.79;100900.36;105780;1306;21966;-64
2022/11/04 06:31:13;;;;;;;13.10;6.70;;;;;;;10.76;50.97;100901.73;105689;1306;22931;-66
2022/11/04 06:33:38;;;;;;;12.30;6.70;;;;;;;10.89;50.77;100902.54;105446;1306;389190;-67
2022/11/04 06:36:06;;;;;;;13.50;6.70;;;;;;;10.98;50.85;100903.91;105654;1309;21965;-67
2022/11/04 06:38:34;;;;;;;16.00;7.20;;;;;;;11.11;50.75;100906.28;105869;1306;24331;-67
2022/11/04 06:40:59;;;;;;;13.40;7.10;;;;;;;11.21;50.62;100903.41;105808;1306;21987;-63
2022/11/04 06:43:26;;;;;;;13.90;7.60;;;;;;;11.34;50.62;100904.73;105744;1298;21966;-64
2022/11/04 06:45:53;;;;;;;13.00;6.10;;;;;;;11.43;50.73;100908.54;105760;1306;21964;-64
2022/11/04 06:48:19;;;;;;;11.00;6.10;;;;;;;11.53;50.90;100913.56;105766;1306;21959;-67
2022/11/04 06:50:45;;;;;;;11.80;6.10;;;;;;;11.68;51.23;100915.36;105749;1306;21970;-64
2022/11/04 06:53:11;;;;;;;11.10;6.00;;;;;;;11.90;51.16;100916.42;105745;1306;21964;-67
2022/11/04 06:55:36;;;;;;;19.30;8.60;;;;;;;12.08;51.08;100922.08;105739;1306;21958;-67
2022/11/04 06:58:02;;;;;;;15.90;8.00;;;;;;;12.25;51.34;100922.24;105726;1301;21961;-67
2022/11/04 07:00:28;;;;;;;19.60;9.70;;;;;;;12.52;51.44;100916.67;105709;1304;21960;-67
2022/11/04 07:02:53;;;;;;;17.30;8.50;;;;;;;12.81;51.30;100918.43;105926;1306;21981;-67
2022/11/04 07:05:19;;;;;;;13.40;7.20;;;;;;;13.00;51.37;100916.94;105754;1306;21970;-64
2022/11/04 07:07:46;;;;;;;12.40;7.40;;;;;;;13.24;51.75;100911.67;105799;1306;21967;-65
2022/11/04 07:10:11;;;;;;;14.50;7.30;;;;;;;13.52;51.58;100911.27;105761;1305;21970;-66
2022/11/04 07:12:37;;;;;;;14.40;7.20;;;;;;;13.78;51.05;100911.20;105787;1305;21965;-68
2022/11/04 07:15:03;;;;;;;31.70;12.30;;;;;;;13.94;50.81;100907.40;105737;1297;21974;-67
2022/11/04 07:17:30;;;;;;;14.80;7.80;;;;;;;14.06;50.49;100909.66;105895;1304;21966;-64
2022/11/04 07:19:56;;;;;;;12.80;7.10;;;;;;;14.15;50.55;100904.71;105759;1299;21962;-64
2022/11/04 07:22:22;;;;;;;13.40;8.00;;;;;;;14.29;50.31;100900.77;106059;1306;21984;-64
2022/11/04 07:24:49;;;;;;;18.40;7.00;;;;;;;14.36;49.87;100898.87;105827;1306;21968;-66
2022/11/04 07:27:16;;;;;;;11.30;5.90;;;;;;;14.43;49.97;100897.48;105787;1305;21965;-66
2022/11/04 07:29:42;;;;;;;41.50;16.60;;;;;;;14.59;50.17;100893.10;105762;1306;21936;-65
2022/11/04 07:32:07;;;;;;;19.70;8.20;;;;;;;14.75;50.03;100889.09;105908;1300;21963;-66
2022/11/04 07:34:34;;;;;;;14.90;7.80;;;;;;;14.90;49.83;100881.34;105724;1304;22012;-64
2022/11/04 07:36:59;;;;;;;11.50;5.80;;;;;;;15.05;49.60;100876.77;105775;1306;21968;-68
2022/11/04 07:39:26;;;;;;;17.00;9.20;;;;;;;15.12;49.17;100876.07;105797;1306;21964;-66
2022/11/04 07:41:52;;;;;;;71.30;32.90;;;;;;;15.21;49.48;100870.41;105763;1306;22052;-63
2022/11/04 07:44:18;;;;;;;17.30;8.90;;;;;;;15.39;49.59;100868.55;105651;1306;22160;-67
2022/11/04 07:46:44;;;;;;;11.40;5.80;;;;;;;15.55;49.41;100865.14;105935;1306;21976;-67
2022/11/04 07:49:10;;;;;;;13.60;6.10;;;;;;;15.68;49.30;100863.57;106175;1306;21922;-64
2022/11/04 07:51:36;;;;;;;11.40;5.70;;;;;;;15.84;48.90;100861.59;107846;1306;22202;-68
2022/11/04 07:54:02;;;;;;;14.20;6.60;;;;;;;15.98;48.60;100856.98;107291;1306;22088;-67
2022/11/04 07:56:28;;;;;;;19.00;8.50;;;;;;;16.07;48.55;100858.52;105721;1306;22003;-64
2022/11/04 07:58:53;;;;;;;12.30;5.30;;;;;;;16.19;48.70;100859.96;105742;1306;21946;-63
2022/11/04 08:01:22;;;;;;;10.70;5.40;;;;;;;16.28;48.47;100858.65;105768;1306;21973;-64
2022/11/04 08:03:49;;;;;;;10.40;5.00;;;;;;;16.39;48.36;100854.26;105751;1306;21961;-62
2022/11/04 08:06:15;;;;;;;12.90;5.60;;;;;;;16.53;48.42;100849.98;105790;1305;21982;-65
2022/11/04 08:08:42;;;;;;;9.60;5.20;;;;;;;16.67;48.20;100844.23;105773;1306;21959;-64
2022/11/04 08:11:10;;;;;;;13.80;5.40;;;;;;;16.79;47.51;100840.16;105757;1305;21956;-64
2022/11/04 08:13:36;;;;;;;9.90;4.60;;;;;;;16.84;47.13;100836.27;105758;1306;21966;-65
2022/11/04 08:16:08;;;;;;;7.30;4.90;;;;;;;16.89;47.31;100836.81;105748;1306;23090;-64
2022/11/04 08:18:36;;;;;;;8.90;4.60;;;;;;;17.01;47.92;100830.25;105747;1302;21970;-64
2022/11/04 08:21:02;;;;;;;9.10;3.80;;;;;;;17.21;47.72;100825.73;105751;1306;21968;-65
2022/11/04 08:23:29;;;;;;;7.00;4.10;;;;;;;17.44;47.72;100826.90;105834;1306;21959;-64
2022/11/04 08:25:55;;;;;;;11.20;4.40;;;;;;;17.68;47.60;100822.91;105768;1305;22024;-65
2022/11/04 08:28:23;;;;;;;29.10;5.40;;;;;;;17.82;46.74;100820.82;106199;1306;21968;-63
2022/11/04 08:31:23;;;;;;;9.40;3.80;;;;;;;17.88;46.45;100817.61;105836;1306;22049;-65
2022/11/04 08:33:49;;;;;;;8.80;4.10;;;;;;;17.98;46.94;100809.09;105694;1306;21963;-66
2022/11/04 08:36:22;;;;;;;7.60;3.90;;;;;;;18.11;46.05;100808.26;105677;1306;21954;-66
2022/11/04 08:38:48;;;;;;;12.00;3.80;;;;;;;18.14;45.81;100803.36;105766;1305;21963;-66
2022/11/04 08:41:15;;;;;;;7.40;3.80;;;;;;;18.17;45.64;100802.73;105732;1306;21959;-68
2022/11/04 08:43:42;;;;;;;8.00;4.00;;;;;;;18.20;45.92;100794.45;105827;1306;21959;-66
2022/11/04 08:46:08;;;;;;;6.70;3.40;;;;;;;18.33;46.30;100791.11;105770;1302;21928;-67
2022/11/04 08:48:36;;;;;;;6.70;3.50;;;;;;;18.56;46.14;100790.92;105917;1306;21957;-67
2022/11/04 08:51:02;;;;;;;7.50;3.30;;;;;;;18.71;45.63;100787.52;105794;1306;22008;-66
2022/11/04 08:53:28;;;;;;;7.60;3.20;;;;;;;18.79;45.77;100785.41;105773;1306;21967;-66
2022/11/04 08:55:54;;;;;;;7.00;3.40;;;;;;;19.00;45.65;100783.36;105738;1303;23439;-66
2022/11/04 08:58:20;;;;;;;6.20;3.40;;;;;;;19.18;45.50;100781.55;105759;1306;22013;-65
2022/11/04 09:00:46;;;;;;;7.00;3.60;;;;;;;19.27;44.12;100781.91;105862;1301;21985;-64
2022/11/04 09:03:12;;;;;;;6.90;3.20;;;;;;;19.31;44.79;100779.08;105767;1306;21968;-66
2022/11/04 09:05:43;;;;;;;6.20;3.30;;;;;;;19.44;44.77;100775.50;105803;1306;22120;-65
2022/11/04 09:08:16;;;;;;;6.70;3.60;;;;;;;19.52;44.35;100768.05;105646;1303;21962;-66
2022/11/04 09:10:43;;;;;;;8.10;3.60;;;;;;;19.56;44.06;100765.36;105776;1306;22440;-66
2022/11/04 09:13:10;;;;;;;5.80;2.70;;;;;;;19.61;44.15;100764.07;105873;1306;21966;-66
2022/11/04 09:15:36;;;;;;;5.10;2.40;;;;;;;19.64;43.92;100761.67;105752;1306;21968;-67
2022/11/04 09:18:04;;;;;;;4.50;2.40;;;;;;;19.65;43.54;100760.04;105729;1306;21960;-66
2022/11/04 09:20:30;;;;;;;24.30;4.40;;;;;;;19.70;43.46;100755.70;105777;1306;21964;-65
2022/11/04 09:22:57;;;;;;;6.00;3.00;;;;;;;19.78;43.39;100751.94;105738;1303;21960;-66
2022/11/04 09:25:22;;;;;;;5.10;2.80;;;;;;;19.87;43.02;100748.89;105724;1299;21997;-66
2022/11/04 09:27:48;;;;;;;9.40;2.90;;;;;;;19.93;41.25;100743.98;105733;1306;21957;-65
2022/11/04 09:30:14;;;;;;;7.30;2.60;;;;;;;19.91;41.80;100741.76;105760;1306;21970;-67
2022/11/04 09:32:42;;;;;;;5.90;2.40;;;;;;;20.04;42.16;100741.02;105873;1306;22765;-66
2022/11/04 09:35:08;;;;;;;4.80;2.40;;;;;;;20.18;42.54;100738.21;105837;1306;21946;-66
2022/11/04 09:37:34;;;;;;;4.40;2.20;;;;;;;20.34;42.36;100734.77;105761;1306;21963;-66
2022/11/04 09:40:00;;;;;;;5.40;2.80;;;;;;;20.39;41.91;100728.32;105821;1306;21971;-66
2022/11/04 09:42:48;;;;;;;6.30;2.30;;;;;;;20.44;42.01;100730.40;105868;1306;21969;-66
2022/11/04 09:45:17;;;;;;;5.10;2.30;;;;;;;20.48;41.97;100729.14;105756;1301;21963;-68
2022/11/04 09:47:44;;;;;;;6.10;2.10;;;;;;;20.49;41.56;100729.12;105810;1306;21964;-66
2022/11/04 09:50:20;;;;;;;3.50;1.90;;;;;;;20.50;41.51;100729.39;105787;1306;21974;-67
2022/11/04 09:52:50;;;;;;;6.10;2.50;;;;;;;20.67;41.66;100722.17;105646;1306;21973;-67
2022/11/04 09:55:44;;;;;;;5.20;2.20;;;;;;;20.81;41.34;100720.25;105759;1306;21960;-65
2022/11/04 09:58:11;;;;;;;5.30;2.30;;;;;;;20.94;40.91;100716.23;105641;1306;21967;-67
2022/11/04 10:00:38;;;;;;;5.60;2.50;;;;;;;21.05;40.12;100716.02;105724;1304;22008;-67
2022/11/04 10:03:40;;;;;;;4.50;2.40;;;;;;;21.07;40.01;100710.05;105675;1304;21975;-65
2022/11/04 10:06:26;;;;;;;5.60;2.50;;;;;;;21.13;39.92;100705.45;105744;1306;21954;-66
2022/11/04 10:09:04;;;;;;;6.30;2.30;;;;;;;21.28;39.89;100702.91;105757;1306;21959;-66
2022/11/04 10:11:51;;;;;;;5.10;2.70;;;;;;;21.33;39.96;100702.46;105795;1301;21970;-66
2022/11/04 10:14:26;;;;;;;5.60;2.50;;;;;;;21.41;39.60;100699.55;105666;1308;22736;-66
2022/11/04 10:17:16;;;;;;;5.00;2.10;;;;;;;21.53;40.32;100696.07;105806;1302;22790;-65
2022/11/04 10:20:07;;;;;;;6.10;2.50;;;;;;;21.69;39.52;100693.31;105715;1306;21974;-66
2022/11/04 10:22:39;;;;;;;5.20;2.30;;;;;;;21.69;39.53;100690.24;105742;1306;22594;-67
2022/11/04 10:25:13;;;;;;;5.00;2.20;;;;;;;21.81;39.44;100682.48;105879;1302;22110;-65
2022/11/04 10:27:41;;;;;;;5.20;2.40;;;;;;;21.95;38.92;100679.73;105803;1306;21968;-66
2022/11/04 10:30:21;;;;;;;6.70;2.30;;;;;;;22.06;39.48;100677.90;105832;1306;21962;-66
2022/11/04 10:32:58;;;;;;;4.70;2.20;;;;;;;22.23;38.34;100675.00;105848;1306;21986;-66
2022/11/04 10:35:32;;;;;;;5.20;2.50;;;;;;;22.28;37.95;100673.44;105774;1304;21961;-66
2022/11/04 10:38:07;;;;;;;5.10;2.20;;;;;;;22.32;39.15;100668.75;105723;1303;21963;-66
2022/11/04 10:40:35;;;;;;;6.00;2.50;;;;;;;22.52;38.35;100665.30;105695;1306;21954;-67
2022/11/04 10:43:01;;;;;;;5.10;2.60;;;;;;;22.57;38.11;100663.05;105663;1306;21966;-66
2022/11/04 10:45:35;;;;;;;5.20;2.60;;;;;;;22.62;38.17;100656.70;105735;1306;21980;-66
2022/11/04 10:48:04;;;;;;;5.60;2.70;;;;;;;22.71;38.28;100650.27;105716;1306;21983;-66
2022/11/04 10:50:54;;;;;;;5.00;2.70;;;;;;;22.70;38.12;100651.79;105770;1301;21961;-66
2022/11/04 10:53:27;;;;;;;6.50;2.60;;;;;;;22.55;36.16;100656.94;105712;1306;21975;-66
2022/11/04 10:55:53;;;;;;;5.90;2.60;;;;;;;22.29;36.23;100655.88;105701;1306;21978;-69
2022/11/04 10:58:22;;;;;;;5.40;2.30;;;;;;;22.22;37.91;100647.50;105793;1306;21969;-66
2022/11/04 11:00:48;;;;;;;4.30;2.50;;;;;;;22.40;38.82;100641.33;105761;1306;21964;-64
2022/11/04 11:03:33;;;;;;;5.60;2.80;;;;;;;22.66;37.90;100641.80;105763;1304;21962;-68
2022/11/04 11:06:18;;;;;;;11.00;2.60;;;;;;;22.86;37.81;100638.66;105843;1304;21962;-65
2022/11/04 11:08:44;;;;;;;6.30;3.40;;;;;;;22.94;37.12;100636.20;105740;1306;21956;-65
2022/11/04 11:11:11;;;;;;;9.10;3.10;;;;;;;23.02;38.10;100631.24;105723;1306;21967;-65
2022/11/04 11:13:39;;;;;;;5.90;2.80;;;;;;;23.23;38.33;100627.72;105798;1306;21946;-65
2022/11/04 11:16:18;;;;;;;6.30;3.10;;;;;;;23.31;37.45;100631.85;105835;1304;21968;-64
2022/11/04 11:19:30;;;;;;;5.60;2.90;;;;;;;23.06;35.93;100628.50;105744;1306;21983;-64
2022/11/04 11:21:56;;;;;;;11.30;4.20;;;;;;;22.75;36.59;100628.02;105286;1312;21972;-65
2022/11/04 11:24:26;;;;;;;9.10;3.00;;;;;;;22.63;36.22;100626.41;105552;1306;21974;-65
2022/11/04 11:26:54;;;;;;;7.50;3.00;;;;;;;22.57;36.99;100623.55;105844;1306;21967;-65
2022/11/04 11:29:24;;;;;;;6.60;2.50;;;;;;;22.71;37.12;100625.44;105677;1305;22425;-66
2022/11/04 11:31:51;;;;;;;12.00;2.90;;;;;;;22.82;36.82;100619.58;105779;1306;21973;-65
2022/11/04 11:34:25;;;;;;;6.30;2.90;;;;;;;22.82;35.88;100616.35;105670;1306;21964;-65
2022/11/04 11:36:52;;;;;;;5.50;2.70;;;;;;;22.82;36.34;100619.23;105905;1306;21958;-65
2022/11/04 11:39:18;;;;;;;6.00;2.80;;;;;;;22.77;35.97;100613.26;105800;1306;22011;-66
2022/11/04 11:41:49;;;;;;;5.70;3.10;;;;;;;22.63;35.73;100608.00;105787;1306;21960;-66
2022/11/04 11:44:37;;;;;;;5.60;3.10;;;;;;;22.54;36.17;100608.00;105793;1305;21970;-66
2022/11/04 11:47:12;;;;;;;6.10;2.90;;;;;;;22.47;36.55;100608.95;105724;1306;21958;-65
2022/11/04 11:49:38;;;;;;;7.00;3.20;;;;;;;22.43;36.50;100606.99;105670;1306;21969;-65
2022/11/04 11:52:28;;;;;;;5.30;3.10;;;;;;;22.37;36.23;100604.80;105743;1306;21976;-66
2022/11/04 11:55:02;;;;;;;6.50;2.60;;;;;;;22.25;35.87;100603.91;105663;1306;22021;-65
2022/11/04 11:57:57;;;;;;;5.80;2.80;;;;;;;22.13;36.21;100603.18;105732;1306;21988;-65
2022/11/04 12:00:31;;;;;;;5.30;2.80;;;;;;;21.97;35.99;100602.81;105623;1306;21971;-65
2022/11/04 12:03:01;;;;;;;6.40;3.00;;;;;;;21.84;36.36;100604.27;105658;1304;21963;-65